createdAt,value
2023-01-20T00:07:38.978Z,2.21
2023-01-20T00:17:42.101Z,2.14
2023-01-20T00:27:46.931Z,2.29
2023-01-20T00:37:49.893Z,2.16
2023-01-20T00:47:54.839Z,2.13
2023-01-20T00:57:58.008Z,2.23
2023-01-20T01:08:02.542Z,1.97
2023-01-20T01:18:05.933Z,1.80
2023-01-20T01:28:13.289Z,1.75
2023-01-20T01:38:16.786Z,1.82
2023-01-20T01:48:25.089Z,1.73
2023-01-20T01:58:31.076Z,1.56
2023-01-20T02:08:36.217Z,1.33
2023-01-20T02:18:52.123Z,1.48
2023-01-20T02:29:21.042Z,1.25
2023-01-20T02:39:30.021Z,1.16
2023-01-20T02:49:38.179Z,1.09
2023-01-20T02:59:47.141Z,1.20
2023-01-20T03:09:54.986Z,1.10
2023-01-20T03:20:00.115Z,1.17
2023-01-20T03:30:03.097Z,1.13
2023-01-20T03:40:09.243Z,1.16
2023-01-20T03:50:27.280Z,0.94
2023-01-20T04:00:34.890Z,1.07
2023-01-20T04:10:41.645Z,1.04
2023-01-20T04:20:49.076Z,1.02
2023-01-20T04:30:52.286Z,1.01
2023-01-20T04:40:56.424Z,0.98
2023-01-20T04:50:59.494Z,0.99
2023-01-20T05:01:03.893Z,1.08
2023-01-20T05:11:07.286Z,1.07
2023-01-20T05:21:11.762Z,1.03
2023-01-20T05:31:15.008Z,1.06
2023-01-20T05:41:19.586Z,1.08
2023-01-20T05:51:23.408Z,0.90
2023-01-20T06:01:28.318Z,0.96
2023-01-20T06:11:31.482Z,0.97
2023-01-20T06:21:35.969Z,0.94
2023-01-20T06:31:39.136Z,0.86
2023-01-20T06:41:43.664Z,0.87
2023-01-20T06:51:48.035Z,0.89
2023-01-20T07:01:54.091Z,0.88
2023-01-20T07:11:57.157Z,0.52
2023-01-20T07:22:02.615Z,0.71
2023-01-20T07:32:06.180Z,0.77
2023-01-20T07:42:10.874Z,0.70
2023-01-20T07:52:13.841Z,0.57
2023-01-20T08:02:18.199Z,0.68
2023-01-20T08:12:21.167Z,0.66
2023-01-20T08:22:27.539Z,0.72
2023-01-20T08:32:31.444Z,0.91
2023-01-20T08:42:36.564Z,0.97
2023-01-20T08:52:40.838Z,1.08
2023-01-20T09:02:45.673Z,0.99
2023-01-20T09:12:48.889Z,1.17
2023-01-20T09:22:53.308Z,1.41
2023-01-20T09:32:57.206Z,1.69
2023-01-20T09:43:30.582Z,1.92
2023-01-20T09:53:48.825Z,1.90
2023-01-20T10:03:58.100Z,1.95
2023-01-20T10:14:07.716Z,2.05
2023-01-20T10:24:16.851Z,2.21
2023-01-20T10:34:24.115Z,2.27
2023-01-20T10:44:30.025Z,2.41
2023-01-20T10:54:43.434Z,2.48
2023-01-20T11:04:58.942Z,2.52
2023-01-20T11:15:02.895Z,2.48
2023-01-20T11:25:24.965Z,2.38
2023-01-20T11:35:28.328Z,2.39
2023-01-20T11:45:35.001Z,2.44
2023-01-20T11:55:48.095Z,2.46
2023-01-20T12:06:01.438Z,2.34
2023-01-20T12:16:09.525Z,2.31
2023-01-20T12:26:36.352Z,2.22
2023-01-20T12:36:55.658Z,2.16
2023-01-20T12:47:09.308Z,2.24
2023-01-20T12:57:20.539Z,1.99
2023-01-20T13:07:53.523Z,1.98
2023-01-20T13:18:17.020Z,1.95
2023-01-20T13:28:25.192Z,1.77
2023-01-20T13:38:31.047Z,1.55
2023-01-20T13:48:37.160Z,1.51
2023-01-20T13:58:41.161Z,1.50
2023-01-20T14:08:47.362Z,1.35
2023-01-20T14:18:58.087Z,1.42
2023-01-20T14:29:03.811Z,1.40
2023-01-20T14:39:09.799Z,1.38
2023-01-20T14:49:16.894Z,1.39
2023-01-20T14:59:21.741Z,1.46
2023-01-20T15:09:33.753Z,1.45
2023-01-20T15:19:37.459Z,1.20
2023-01-20T15:29:42.281Z,1.23
2023-01-20T15:39:47.752Z,1.07
2023-01-20T15:49:53.556Z,1.07
2023-01-20T15:59:57.023Z,1.02
2023-01-20T16:10:04.155Z,1.09
2023-01-20T16:20:19.084Z,0.87
2023-01-20T16:30:24.147Z,1.02
2023-01-20T16:40:28.258Z,0.88
2023-01-20T16:50:32.459Z,1.00
2023-01-20T17:00:35.756Z,1.10
2023-01-20T17:10:40.387Z,1.16
2023-01-20T17:20:43.345Z,1.15
2023-01-20T17:30:48.354Z,1.18
2023-01-20T17:40:51.949Z,1.29
2023-01-20T17:51:00.857Z,1.33
2023-01-20T18:01:14.035Z,1.36
2023-01-20T18:11:19.921Z,1.30
2023-01-20T18:21:25.118Z,1.52
2023-01-20T18:31:31.716Z,1.39
2023-01-20T18:41:37.542Z,1.44
2023-01-20T18:51:42.951Z,1.22
2023-01-20T19:01:45.888Z,1.25
2023-01-20T19:11:50.074Z,1.30
2023-01-20T19:21:53.226Z,1.35
2023-01-20T19:31:57.819Z,1.14
2023-01-20T19:42:00.716Z,1.15
2023-01-20T19:52:06.061Z,1.00
2023-01-20T20:02:10.177Z,0.81
2023-01-20T20:12:14.448Z,0.88
2023-01-20T20:22:17.397Z,0.98
2023-01-20T20:32:21.702Z,0.98
2023-01-20T20:42:24.682Z,1.03
2023-01-20T20:52:28.952Z,0.87
2023-01-20T21:02:32.613Z,0.77
2023-01-20T21:12:37.302Z,0.78
2023-01-20T21:22:40.216Z,0.91
2023-01-20T21:32:45.181Z,1.01
2023-01-20T21:42:49.969Z,1.03
2023-01-20T21:52:54.251Z,0.80
2023-01-20T22:02:57.285Z,0.80
2023-01-20T22:13:01.454Z,0.76
2023-01-20T22:23:05.420Z,0.67
2023-01-20T22:33:09.729Z,0.57
2023-01-20T22:43:12.555Z,0.46
2023-01-20T22:53:16.676Z,0.35
2023-01-20T23:03:20.752Z,0.30
2023-01-20T23:13:25.701Z,0.22
2023-01-20T23:23:29.946Z,0.11
2023-01-20T23:33:55.834Z,0.29
2023-01-20T23:54:28.158Z,-0.04
